Time;durP1;ratioP1;P1;durP2;ratioP2;P2;SDS_P1;SDS_P2;PMS_P1;PMS_P2;Temp;Humidity;BMP_temperature;BMP_pressure;BME280_temperature;BME280_humidity;BME280_pressure;Samples;Min_cycle;Max_cycle;Signal;HPM_P1;HPM_P2
2023/09/13 00:02:15;;;;;;;1999.90;999.90;;;19.20;99.90;;;;;;5014362;28;20197;-67
2023/09/13 00:04:41;;;;;;;1999.90;999.90;;;19.20;99.90;;;;;;5013455;28;20622;-67
2023/09/13 00:07:06;;;;;;;1999.90;999.90;;;19.20;99.90;;;;;;5014270;28;20449;-66
2023/09/13 00:09:32;;;;;;;1999.90;999.90;;;19.20;99.90;;;;;;5014334;28;20569;-67
2023/09/13 00:11:58;;;;;;;1999.90;999.90;;;19.20;99.90;;;;;;5014280;28;20260;-67
2023/09/13 00:14:23;;;;;;;1999.90;999.90;;;19.30;99.90;;;;;;5013854;28;20189;-67
2023/09/13 00:16:50;;;;;;;1999.90;999.90;;;19.30;99.90;;;;;;5014133;28;20176;-67
2023/09/13 00:19:16;;;;;;;1999.90;999.90;;;19.20;99.90;;;;;;5017522;28;20187;-67
2023/09/13 00:21:42;;;;;;;1999.90;999.90;;;19.20;99.90;;;;;;5020570;28;20488;-67
2023/09/13 00:24:09;;;;;;;1999.90;999.90;;;19.20;99.90;;;;;;5020596;28;20935;-68
2023/09/13 00:26:35;;;;;;;1999.90;999.90;;;19.20;99.90;;;;;;5021432;28;20407;-67
2023/09/13 00:29:01;;;;;;;1999.90;999.90;;;19.10;99.90;;;;;;5022047;28;20407;-68
2023/09/13 00:31:26;;;;;;;1999.90;999.90;;;19.10;99.90;;;;;;5022034;28;20429;-67
2023/09/13 00:33:52;;;;;;;1999.90;999.90;;;19.10;99.90;;;;;;5022027;28;20276;-67
2023/09/13 00:36:18;;;;;;;1999.90;999.90;;;19.10;99.90;;;;;;5021528;28;20177;-67
2023/09/13 00:38:43;;;;;;;1999.90;999.90;;;19.10;99.90;;;;;;5021752;28;20540;-66
2023/09/13 00:41:09;;;;;;;1999.90;999.90;;;19.10;99.90;;;;;;5021222;28;20241;-67
2023/09/13 00:43:35;;;;;;;1999.90;999.90;;;19.20;99.90;;;;;;5020349;28;20304;-67
2023/09/13 00:46:01;;;;;;;1999.90;999.90;;;19.20;99.90;;;;;;5021628;28;20174;-67
2023/09/13 00:48:28;;;;;;;1999.90;999.90;;;19.20;99.90;;;;;;5021570;28;20168;-68
2023/09/13 00:50:55;;;;;;;1999.90;999.90;;;20.40;99.90;;;;;;5020779;28;20413;-68
2023/09/13 00:53:23;;;;;;;1999.90;999.90;;;19.20;99.90;;;;;;5020669;28;20444;-67
2023/09/13 00:55:51;;;;;;;1999.90;999.90;;;19.30;99.90;;;;;;5022053;28;20503;-68
2023/09/13 00:58:18;;;;;;;1999.90;999.90;;;19.30;99.90;;;;;;5021485;28;20411;-67
2023/09/13 01:00:45;;;;;;;1999.90;999.90;;;19.30;99.90;;;;;;5023399;28;20459;-67
2023/09/13 01:03:13;;;;;;;1999.90;999.90;;;19.30;99.90;;;;;;5021699;28;20522;-68
2023/09/13 01:05:38;;;;;;;1999.90;999.90;;;19.20;99.90;;;;;;5021591;28;20450;-67
2023/09/13 01:08:04;;;;;;;1999.90;999.90;;;19.20;99.90;;;;;;5021463;28;20762;-67
2023/09/13 01:10:30;;;;;;;1999.90;999.90;;;19.20;99.90;;;;;;5022797;28;20173;-67
2023/09/13 01:12:56;;;;;;;1999.90;999.90;;;19.20;99.90;;;;;;5022606;28;20421;-68
2023/09/13 01:15:23;;;;;;;1999.90;999.90;;;19.10;99.90;;;;;;5021342;28;20583;-68
2023/09/13 01:17:54;;;;;;;1999.90;999.90;;;19.10;99.90;;;;;;5022540;28;20181;-67
2023/09/13 01:20:54;;;;;;;1999.90;999.90;;;19.10;99.90;;;;;;5022323;28;20417;-67
2023/09/13 01:23:47;;;;;;;1999.90;999.90;;;19.10;99.90;;;;;;5008180;28;20476;-67
2023/09/13 01:26:25;;;;;;;1999.90;999.90;;;19.10;99.90;;;;;;5024369;28;20421;-67
2023/09/13 01:28:53;;;;;;;1999.90;999.90;;;19.10;99.90;;;;;;5023751;28;20550;-68
2023/09/13 01:31:24;;;;;;;1999.90;999.90;;;19.10;99.90;;;;;;5024791;28;20401;-67
2023/09/13 01:33:50;;;;;;;1999.90;999.90;;;19.00;99.90;;;;;;5024756;28;20417;-68
2023/09/13 01:36:15;;;;;;;1999.90;999.90;;;19.10;99.90;;;;;;5024842;28;20482;-67
2023/09/13 01:38:41;;;;;;;1999.90;999.90;;;19.10;99.90;;;;;;5023067;28;20764;-67
2023/09/13 01:41:07;;;;;;;1999.90;999.90;;;19.10;99.90;;;;;;5024373;28;20586;-67
2023/09/13 01:43:33;;;;;;;1999.90;999.90;;;19.10;99.90;;;;;;5024802;28;20720;-67
2023/09/13 01:46:00;;;;;;;1999.90;999.90;;;19.10;99.90;;;;;;5025003;28;20219;-67
2023/09/13 01:48:26;;;;;;;1999.90;999.90;;;19.10;99.90;;;;;;5025708;28;20427;-68
2023/09/13 01:50:53;;;;;;;1999.90;999.90;;;19.20;99.90;;;;;;5024219;28;20407;-67
2023/09/13 01:53:19;;;;;;;1999.90;999.90;;;19.20;99.90;;;;;;5022742;28;20424;-67
2023/09/13 01:55:44;;;;;;;1999.90;999.90;;;19.20;99.90;;;;;;5022699;28;20499;-66
2023/09/13 01:58:10;;;;;;;1999.90;999.90;;;19.30;99.90;;;;;;5022080;28;20176;-68
2023/09/13 02:00:36;;;;;;;1999.90;999.90;;;19.30;99.90;;;;;;5023422;28;20541;-68
2023/09/13 02:03:02;;;;;;;1999.90;999.90;;;19.30;99.90;;;;;;5024322;28;20201;-68
2023/09/13 02:05:27;;;;;;;1999.90;999.90;;;19.30;99.90;;;;;;5023878;28;20505;-67
2023/09/13 02:07:53;;;;;;;1999.90;999.90;;;19.40;99.90;;;;;;5023300;28;20252;-67
2023/09/13 02:10:19;;;;;;;1999.90;999.90;;;19.40;99.90;;;;;;5024005;28;20175;-66
2023/09/13 02:12:44;;;;;;;1999.90;999.90;;;19.40;99.90;;;;;;5023281;28;20188;-68
2023/09/13 02:15:10;;;;;;;1999.90;999.90;;;19.30;99.90;;;;;;5022340;28;20688;-67
2023/09/13 02:17:35;;;;;;;1999.90;999.90;;;19.30;99.90;;;;;;5022620;28;20177;-68
2023/09/13 02:20:01;;;;;;;1999.90;999.90;;;19.40;99.90;;;;;;5021555;28;20622;-67
2023/09/13 02:22:26;;;;;;;1999.90;999.90;;;19.40;99.90;;;;;;5011974;28;20200;-67
2023/09/13 02:24:52;;;;;;;1999.90;999.90;;;19.30;99.90;;;;;;5011647;28;20697;-67
2023/09/13 02:27:18;;;;;;;1999.90;999.90;;;19.40;99.90;;;;;;5016795;28;20506;-67
2023/09/13 02:29:43;;;;;;;1999.90;999.90;;;19.40;99.90;;;;;;5018693;28;20168;-67
2023/09/13 02:32:09;;;;;;;1999.90;999.90;;;19.50;99.90;;;;;;5018511;28;20629;-67
2023/09/13 02:34:34;;;;;;;1999.90;999.90;;;19.50;99.90;;;;;;5018194;28;20188;-67
2023/09/13 02:37:00;;;;;;;1999.90;999.90;;;19.50;99.90;;;;;;5018515;28;20169;-67
2023/09/13 02:39:41;;;;;;;1999.90;999.90;;;19.50;99.90;;;;;;5018474;28;20176;-67
2023/09/13 02:42:07;;;;;;;1999.90;999.90;;;19.50;99.90;;;;;;5018472;28;20200;-67
2023/09/13 02:44:34;;;;;;;1999.90;999.90;;;19.50;99.90;;;;;;5018135;28;20423;-67
2023/09/13 02:47:00;;;;;;;1999.90;999.90;;;19.50;99.90;;;;;;5018402;28;20936;-68
2023/09/13 02:49:26;;;;;;;1999.90;999.90;;;19.50;99.90;;;;;;5018422;28;20490;-68
2023/09/13 02:51:52;;;;;;;1999.90;999.90;;;19.60;99.90;;;;;;5018318;28;20434;-67
2023/09/13 02:54:19;;;;;;;1999.90;999.90;;;19.60;99.90;;;;;;5018105;28;20432;-67
2023/09/13 02:56:45;;;;;;;1999.90;999.90;;;19.60;99.90;;;;;;5018278;28;20417;-67
2023/09/13 02:59:11;;;;;;;1999.90;999.90;;;19.60;99.90;;;;;;5018678;28;20815;-67
2023/09/13 03:01:37;;;;;;;1999.90;999.90;;;19.60;99.90;;;;;;5018216;28;20494;-67
2023/09/13 03:04:03;;;;;;;1999.90;999.90;;;19.70;99.90;;;;;;5018041;28;20209;-67
2023/09/13 03:06:29;;;;;;;1999.90;999.90;;;19.60;99.90;;;;;;5018314;28;20176;-67
2023/09/13 03:08:55;;;;;;;1999.90;999.90;;;19.70;99.90;;;;;;5018121;28;20408;-67
2023/09/13 03:11:21;;;;;;;1999.90;999.90;;;19.70;99.90;;;;;;5018167;28;20415;-67
2023/09/13 03:13:47;;;;;;;1999.90;999.90;;;19.70;99.90;;;;;;5017877;28;20489;-67
2023/09/13 03:16:14;;;;;;;1999.90;999.90;;;19.80;99.90;;;;;;5018240;28;20177;-68
2023/09/13 03:18:40;;;;;;;1999.90;999.90;;;19.70;99.90;;;;;;5018194;28;20177;-67
2023/09/13 03:21:08;;;;;;;1999.90;999.90;;;19.70;99.90;;;;;;5018213;28;20881;-67
2023/09/13 03:23:36;;;;;;;1999.90;999.90;;;19.70;99.90;;;;;;5017670;28;20459;-67
2023/09/13 03:26:01;;;;;;;1999.90;999.90;;;19.60;99.90;;;;;;5018126;28;20395;-67
2023/09/13 03:28:28;;;;;;;1999.90;999.90;;;19.60;99.90;;;;;;5018114;28;20404;-68
2023/09/13 03:30:53;;;;;;;1999.90;999.90;;;19.60;99.90;;;;;;5018028;28;20412;-67
2023/09/13 03:33:19;;;;;;;1999.90;999.90;;;19.60;99.90;;;;;;5017662;28;20272;-68
2023/09/13 03:35:44;;;;;;;1999.90;999.90;;;19.60;99.90;;;;;;5018033;28;20172;-68
2023/09/13 03:38:10;;;;;;;1999.90;999.90;;;19.60;99.90;;;;;;5015522;28;20557;-69
2023/09/13 03:40:36;;;;;;;1999.90;999.90;;;19.60;99.90;;;;;;5014917;28;20176;-67
2023/09/13 03:43:01;;;;;;;1999.90;999.90;;;19.40;99.90;;;;;;5014354;28;20553;-68
2023/09/13 03:45:27;;;;;;;1999.90;999.90;;;19.60;99.90;;;;;;5014750;28;20550;-67
2023/09/13 03:47:52;;;;;;;1999.90;999.90;;;19.60;99.90;;;;;;5014688;28;20169;-67
2023/09/13 03:50:18;;;;;;;1999.90;999.90;;;19.50;99.90;;;;;;5014669;28;20169;-67
2023/09/13 03:52:44;;;;;;;1999.90;999.90;;;19.50;99.90;;;;;;5014335;28;20177;-67
2023/09/13 03:55:10;;;;;;;1999.90;999.90;;;19.40;99.90;;;;;;5014485;28;20201;-67
2023/09/13 03:57:35;;;;;;;1999.90;999.90;;;19.30;99.90;;;;;;5014562;28;20419;-67
2023/09/13 04:00:01;;;;;;;1999.90;999.90;;;19.40;99.90;;;;;;5014507;28;20187;-67
2023/09/13 04:02:26;;;;;;;1999.90;999.90;;;19.40;99.90;;;;;;5014351;28;20205;-68
2023/09/13 04:04:52;;;;;;;1999.90;999.90;;;19.40;99.90;;;;;;5014208;28;20538;-68
2023/09/13 04:07:17;;;;;;;1999.90;999.90;;;19.40;99.90;;;;;;5014335;28;20223;-67
2023/09/13 04:09:43;;;;;;;1999.90;999.90;;;19.40;99.90;;;;;;5014391;28;20180;-67
2023/09/13 04:12:08;;;;;;;1999.90;999.90;;;19.40;99.90;;;;;;5014267;28;20174;-68
2023/09/13 04:14:34;;;;;;;1999.90;999.90;;;19.40;99.90;;;;;;5013962;28;20576;-68
2023/09/13 04:16:59;;;;;;;1999.90;999.90;;;19.30;99.90;;;;;;5014235;28;20174;-67
2023/09/13 04:19:25;;;;;;;1999.90;999.90;;;19.30;99.90;;;;;;5014183;28;20554;-66
2023/09/13 04:21:51;;;;;;;1999.90;999.90;;;19.30;99.90;;;;;;5013994;28;20209;-67
2023/09/13 04:24:16;;;;;;;1999.90;999.90;;;19.30;99.90;;;;;;5013563;28;20297;-67
2023/09/13 04:26:42;;;;;;;1999.90;999.90;;;19.30;99.90;;;;;;5014092;28;20173;-68
2023/09/13 04:29:07;;;;;;;1999.90;999.90;;;19.20;99.90;;;;;;5013985;28;20162;-67
2023/09/13 04:31:33;;;;;;;1999.90;999.90;;;19.20;99.90;;;;;;5013945;28;20173;-67
2023/09/13 04:33:58;;;;;;;1999.90;999.90;;;19.10;99.90;;;;;;5013595;28;20190;-67
2023/09/13 04:36:24;;;;;;;1999.90;999.90;;;19.10;99.90;;;;;;5013759;28;20169;-66
2023/09/13 04:38:49;;;;;;;1999.90;999.90;;;19.10;99.90;;;;;;5013811;28;20175;-66
2023/09/13 04:41:16;;;;;;;1999.90;999.90;;;19.00;99.90;;;;;;5013743;28;20197;-68
2023/09/13 04:43:42;;;;;;;1999.90;999.90;;;19.00;99.90;;;;;;5013313;28;20216;-67
2023/09/13 04:46:08;;;;;;;1999.90;999.90;;;19.00;99.90;;;;;;5013624;28;20401;-67
2023/09/13 04:48:34;;;;;;;1999.90;999.90;;;19.00;99.90;;;;;;5013580;28;20783;-66
2023/09/13 04:51:00;;;;;;;1999.90;999.90;;;19.00;99.90;;;;;;5013365;28;20169;-66
2023/09/13 04:53:26;;;;;;;1999.90;999.90;;;18.90;99.90;;;;;;5013126;28;20431;-66
2023/09/13 04:55:51;;;;;;;1999.90;999.90;;;18.90;99.90;;;;;;5013508;28;20173;-66
2023/09/13 04:58:17;;;;;;;1999.90;999.90;;;18.90;99.90;;;;;;5013428;28;20450;-67
2023/09/13 05:00:42;;;;;;;1999.90;999.90;;;18.80;99.90;;;;;;5013385;28;20239;-67
2023/09/13 05:03:08;;;;;;;1999.90;999.90;;;18.80;99.90;;;;;;5013022;28;20239;-67
2023/09/13 05:05:34;;;;;;;1999.90;999.90;;;18.80;99.90;;;;;;5013688;28;20648;-68
2023/09/13 05:07:59;;;;;;;1999.90;999.90;;;18.80;99.90;;;;;;5013672;28;20549;-67
2023/09/13 05:10:25;;;;;;;1999.90;999.90;;;18.80;99.90;;;;;;5013443;28;20174;-66
2023/09/13 05:12:51;;;;;;;1999.90;999.90;;;18.70;99.90;;;;;;5013041;28;20182;-67
2023/09/13 05:15:16;;;;;;;1999.90;999.90;;;18.80;99.90;;;;;;5013320;28;20200;-68
2023/09/13 05:17:42;;;;;;;1999.90;999.90;;;18.80;99.90;;;;;;5013543;28;20249;-68
2023/09/13 05:20:08;;;;;;;1999.90;999.90;;;18.70;99.90;;;;;;5013156;28;20577;-67
2023/09/13 05:22:33;;;;;;;1999.90;999.90;;;18.80;99.90;;;;;;5012960;28;20231;-67
2023/09/13 05:25:00;;;;;;;1999.90;999.90;;;18.80;99.90;;;;;;5013126;28;20207;-67
2023/09/13 05:27:26;;;;;;;1999.90;999.90;;;18.80;99.90;;;;;;5013091;28;20258;-67
2023/09/13 05:29:52;;;;;;;1999.90;999.90;;;18.80;99.90;;;;;;5013121;28;20410;-67
2023/09/13 05:32:19;;;;;;;1999.90;999.90;;;18.80;99.90;;;;;;5013140;28;20425;-67
2023/09/13 05:34:45;;;;;;;1999.90;999.90;;;18.80;99.90;;;;;;5012891;28;20474;-68
2023/09/13 05:37:11;;;;;;;1999.90;999.90;;;18.80;99.90;;;;;;5012851;28;20412;-67
2023/09/13 05:39:36;;;;;;;1999.90;999.90;;;18.80;99.90;;;;;;5012891;28;20970;-67
2023/09/13 05:42:03;;;;;;;1999.90;999.90;;;18.80;99.90;;;;;;5012883;28;20211;-66
2023/09/13 05:44:30;;;;;;;1999.90;999.90;;;18.80;99.90;;;;;;5012408;28;20196;-67
2023/09/13 05:46:56;;;;;;;1999.90;999.90;;;18.80;99.90;;;;;;5012639;28;20403;-67
2023/09/13 05:49:22;;;;;;;1999.90;999.90;;;18.80;99.90;;;;;;5012834;28;20407;-67
2023/09/13 05:51:47;;;;;;;1999.90;999.90;;;18.80;99.90;;;;;;5012822;28;20605;-67
2023/09/13 05:54:13;;;;;;;1999.90;999.90;;;18.80;99.90;;;;;;5012458;28;20284;-67
2023/09/13 05:56:41;;;;;;;1999.90;999.90;;;18.80;99.90;;;;;;5012600;28;20172;-67
2023/09/13 05:59:07;;;;;;;1999.90;999.90;;;18.80;99.90;;;;;;5012605;28;20546;-66
2023/09/13 06:01:33;;;;;;;1999.90;999.90;;;18.90;99.90;;;;;;5012137;28;20466;-67
2023/09/13 06:03:58;;;;;;;1999.90;999.90;;;18.90;99.90;;;;;;5012298;28;20426;-66
2023/09/13 06:06:24;;;;;;;1999.90;999.90;;;18.80;99.90;;;;;;5012700;28;20177;-67
2023/09/13 06:08:49;;;;;;;1999.90;999.90;;;18.80;99.90;;;;;;5012588;28;20199;-67
2023/09/13 06:11:17;;;;;;;1999.90;999.90;;;18.70;99.90;;;;;;5012424;28;20541;-67
2023/09/13 06:13:43;;;;;;;1999.90;999.90;;;18.70;99.90;;;;;;5012083;28;20227;-68
2023/09/13 06:16:09;;;;;;;1999.90;999.90;;;18.70;99.90;;;;;;5012691;28;20438;-67
2023/09/13 06:18:35;;;;;;;1999.90;999.90;;;18.70;99.90;;;;;;4989986;28;20182;-67
2023/09/13 06:21:01;;;;;;;1999.90;999.90;;;18.70;99.90;;;;;;5000845;28;20192;-67
2023/09/13 06:23:38;;;;;;;1999.90;999.90;;;18.70;99.90;;;;;;5011874;28;21044;-67
2023/09/13 06:26:04;;;;;;;1999.90;999.90;;;18.70;99.90;;;;;;5012284;28;20185;-68
2023/09/13 06:28:30;;;;;;;1999.90;999.90;;;18.70;99.90;;;;;;5006839;28;20850;-67
2023/09/13 06:30:58;;;;;;;1999.90;999.90;;;18.60;99.90;;;;;;5008271;28;20431;-67
2023/09/13 06:33:24;;;;;;;1999.90;999.90;;;18.70;99.90;;;;;;5002721;28;20434;-68
2023/09/13 06:35:50;;;;;;;1999.90;999.90;;;18.70;99.90;;;;;;5004137;28;20420;-67
2023/09/13 06:38:16;;;;;;;1999.90;999.90;;;18.60;99.90;;;;;;5001841;28;20418;-68
2023/09/13 06:40:43;;;;;;;1999.90;999.90;;;18.60;99.90;;;;;;5001519;28;20183;-68
2023/09/13 06:43:10;;;;;;;1999.90;999.90;;;18.70;99.90;;;;;;5001375;28;20863;-67
2023/09/13 06:45:36;;;;;;;1999.90;999.90;;;18.60;99.90;;;;;;5012252;28;20433;-67
2023/09/13 06:48:01;;;;;;;1999.90;999.90;;;18.60;99.90;;;;;;5009705;28;20404;-67
2023/09/13 06:50:27;;;;;;;1999.90;999.90;;;18.70;99.90;;;;;;5004233;28;20180;-67
2023/09/13 06:52:53;;;;;;;1999.90;999.90;;;18.70;99.90;;;;;;5001195;28;20673;-67
2023/09/13 06:55:18;;;;;;;1999.90;999.90;;;18.70;99.90;;;;;;5002604;28;20260;-67
2023/09/13 06:57:44;;;;;;;1999.90;999.90;;;18.70;99.90;;;;;;5011754;28;20182;-67
2023/09/13 07:00:11;;;;;;;1999.90;999.90;;;18.70;99.90;;;;;;5011856;28;20400;-67
2023/09/13 07:02:36;;;;;;;1999.90;999.90;;;18.70;99.90;;;;;;4996545;28;20225;-66
2023/09/13 07:05:03;;;;;;;1999.90;999.90;;;18.80;99.90;;;;;;5003589;28;20439;-66
2023/09/13 07:07:28;;;;;;;1999.90;999.90;;;18.80;99.90;;;;;;5002538;28;20182;-67
2023/09/13 07:09:54;;;;;;;1999.90;999.90;;;18.80;99.90;;;;;;5000103;28;20496;-66
2023/09/13 07:12:19;;;;;;;1999.90;999.90;;;18.80;99.90;;;;;;5010656;28;20712;-67
2023/09/13 07:14:45;;;;;;;1999.90;999.90;;;18.80;99.90;;;;;;4987649;28;20197;-67
2023/09/13 07:17:11;;;;;;;1999.90;999.90;;;18.80;99.90;;;;;;4988466;28;20651;-67
2023/09/13 07:19:37;;;;;;;1999.90;999.90;;;18.80;99.90;;;;;;5004123;28;20426;-67
2023/09/13 07:22:03;;;;;;;1999.90;999.90;;;18.80;99.90;;;;;;5006918;28;20201;-66
2023/09/13 07:24:29;;;;;;;1999.90;999.90;;;18.80;99.90;;;;;;5003132;28;20244;-67
2023/09/13 07:26:55;;;;;;;1999.90;999.90;;;18.80;99.90;;;;;;5009730;28;20435;-67
2023/09/13 07:29:21;;;;;;;1999.90;999.90;;;18.80;99.90;;;;;;5015309;28;20413;-67
2023/09/13 07:31:46;;;;;;;1999.90;999.90;;;18.70;99.90;;;;;;5014961;28;20230;-66
2023/09/13 07:34:12;;;;;;;1999.90;999.90;;;18.70;99.90;;;;;;5014802;28;20425;-67
2023/09/13 07:36:38;;;;;;;1999.90;999.90;;;18.70;99.90;;;;;;5007685;28;20240;-67
2023/09/13 07:39:04;;;;;;;1999.90;999.90;;;18.70;99.90;;;;;;5011598;28;20174;-67
2023/09/13 07:41:30;;;;;;;1999.90;999.90;;;18.70;99.90;;;;;;5014791;28;20398;-67
2023/09/13 07:43:55;;;;;;;1999.90;999.90;;;18.60;99.90;;;;;;5014425;28;20218;-67
2023/09/13 07:46:22;;;;;;;1999.90;999.90;;;18.50;99.90;;;;;;5014806;28;20397;-67
2023/09/13 07:48:48;;;;;;;1999.90;999.90;;;18.50;99.90;;;;;;5014742;28;20172;-68
2023/09/13 07:51:13;;;;;;;1999.90;999.90;;;18.40;99.90;;;;;;5009703;28;20527;-66
2023/09/13 07:53:41;;;;;;;1999.90;999.90;;;18.40;99.90;;;;;;5006072;28;20263;-67
2023/09/13 07:56:07;;;;;;;1999.90;999.90;;;18.40;99.90;;;;;;4988515;28;20236;-67
2023/09/13 07:58:32;;;;;;;1999.90;999.90;;;18.40;99.90;;;;;;5009236;28;20831;-67
2023/09/13 08:00:58;;;;;;;1999.90;999.90;;;18.50;99.90;;;;;;4990371;28;20188;-66
2023/09/13 08:03:24;;;;;;;1999.90;999.90;;;18.60;99.90;;;;;;4976680;28;20229;-68
2023/09/13 08:05:50;;;;;;;1999.90;999.90;;;18.80;99.90;;;;;;4976012;28;20456;-67
2023/09/13 08:08:22;;;;;;;1999.90;999.90;;;19.00;99.90;;;;;;4998681;28;20414;-68
2023/09/13 08:10:49;;;;;;;1999.90;999.90;;;19.10;99.90;;;;;;5002708;28;20404;-69
2023/09/13 08:13:15;;;;;;;1999.90;999.90;;;19.20;99.90;;;;;;4999248;28;20437;-66
2023/09/13 08:15:41;;;;;;;1999.90;999.90;;;19.20;99.90;;;;;;5008074;28;20412;-67
2023/09/13 08:18:07;;;;;;;1999.90;999.90;;;19.20;99.90;;;;;;5009421;28;20416;-68
2023/09/13 08:20:32;;;;;;;1999.90;999.90;;;19.30;99.90;;;;;;5005031;28;20438;-66
2023/09/13 08:22:58;;;;;;;1999.90;999.90;;;19.20;99.90;;;;;;5014628;28;20291;-68
2023/09/13 08:25:24;;;;;;;1999.90;999.90;;;19.40;99.90;;;;;;5007640;28;20679;-67
2023/09/13 08:27:51;;;;;;;1999.90;999.90;;;19.60;99.90;;;;;;4997578;28;20183;-64
2023/09/13 08:30:16;;;;;;;1999.90;999.90;;;19.70;99.90;;;;;;5010968;28;20178;-65
2023/09/13 08:32:42;;;;;;;1999.90;999.90;;;19.80;99.90;;;;;;5013380;28;20495;-67
2023/09/13 08:35:07;;;;;;;1999.90;999.90;;;19.80;99.90;;;;;;4998241;28;20687;-67
2023/09/13 08:37:33;;;;;;;1999.90;999.90;;;19.90;99.90;;;;;;5000998;28;20185;-68
2023/09/13 08:39:59;;;;;;;1999.90;999.90;;;20.10;99.90;;;;;;4999713;28;20182;-68
2023/09/13 08:42:28;;;;;;;1999.90;999.90;;;20.20;99.90;;;;;;5000946;28;20463;-68
2023/09/13 08:44:54;;;;;;;1999.90;999.90;;;20.10;99.90;;;;;;4990675;28;20198;-68
2023/09/13 08:47:22;;;;;;;1999.90;999.90;;;20.20;99.90;;;;;;4995331;28;20425;-68
2023/09/13 08:49:49;;;;;;;1999.90;999.90;;;20.30;99.90;;;;;;4995938;28;20446;-71
2023/09/13 08:52:16;;;;;;;1999.90;999.90;;;20.30;99.90;;;;;;5006937;28;20422;-68
2023/09/13 08:54:43;;;;;;;1999.90;999.90;;;20.40;99.90;;;;;;4995856;28;20416;-67
2023/09/13 08:57:09;;;;;;;1999.90;999.90;;;20.50;99.90;;;;;;4994972;28;20423;-69
2023/09/13 08:59:35;;;;;;;1999.90;999.90;;;20.60;99.90;;;;;;4988223;28;20938;-69
2023/09/13 09:02:02;;;;;;;1999.90;999.90;;;20.60;99.90;;;;;;5002988;28;20464;-68
2023/09/13 09:04:28;;;;;;;1999.90;999.90;;;20.70;99.90;;;;;;4996750;28;20197;-69
2023/09/13 09:06:54;;;;;;;1999.90;999.90;;;20.70;99.90;;;;;;5001301;28;20390;-69
2023/09/13 09:09:23;;;;;;;1999.90;999.90;;;20.60;99.90;;;;;;5002678;28;20649;-68
2023/09/13 09:11:57;;;;;;;1999.90;999.90;;;20.50;99.90;;;;;;5000393;28;20407;-67
2023/09/13 09:14:26;;;;;;;1999.90;999.90;;;20.50;99.90;;;;;;4994503;28;20503;-69
2023/09/13 09:16:53;;;;;;;1999.90;999.90;;;20.50;99.90;;;;;;4992368;28;20920;-68
2023/09/13 09:19:20;;;;;;;1999.90;999.90;;;20.50;99.90;;;;;;4998954;28;20472;-68
2023/09/13 09:21:46;;;;;;;1999.90;999.90;;;20.50;99.90;;;;;;5001615;28;20418;-68
2023/09/13 09:24:12;;;;;;;1999.90;999.90;;;20.70;99.90;;;;;;5000229;28;20458;-68
2023/09/13 09:26:37;;;;;;;1999.90;999.90;;;20.80;99.90;;;;;;4997541;28;20420;-69
2023/09/13 09:29:10;;;;;;;1999.90;999.90;;;20.90;99.90;;;;;;5004255;28;20213;-68
2023/09/13 09:31:37;;;;;;;1999.90;999.90;;;20.90;99.90;;;;;;5008278;28;20168;-68
2023/09/13 09:34:03;;;;;;;1999.90;999.90;;;21.00;99.90;;;;;;4995343;28;20491;-66
2023/09/13 09:36:34;;;;;;;1999.90;999.90;;;21.00;99.90;;;;;;4997655;28;21107;-68
2023/09/13 09:39:01;;;;;;;1999.90;999.90;;;21.10;99.90;;;;;;5003859;28;20389;-68
2023/09/13 09:41:37;;;;;;;1999.90;999.90;;;21.10;99.90;;;;;;5005328;28;20402;-65
2023/09/13 09:44:04;;;;;;;1999.90;999.90;;;21.20;99.90;;;;;;4999572;28;20464;-65
2023/09/13 09:46:34;;;;;;;1999.90;999.90;;;21.20;99.90;;;;;;5008553;28;20397;-69
2023/09/13 09:49:04;;;;;;;1999.90;999.90;;;21.20;99.90;;;;;;5008272;28;20410;-68
2023/09/13 09:51:32;;;;;;;1999.90;999.90;;;21.40;99.90;;;;;;5008053;28;20427;-69
2023/09/13 09:53:57;;;;;;;1999.90;999.90;;;21.30;99.90;;;;;;5007763;28;20429;-66
2023/09/13 09:56:23;;;;;;;1999.90;999.90;;;21.30;99.90;;;;;;5003499;28;21000;-67
2023/09/13 09:58:50;;;;;;;1999.90;999.90;;;21.40;99.90;;;;;;5001448;28;20180;-69
2023/09/13 10:01:17;;;;;;;1999.90;999.90;;;21.30;99.90;;;;;;5007753;28;20182;-67
2023/09/13 10:03:43;;;;;;;1999.90;999.90;;;21.30;99.90;;;;;;5008374;28;20473;-69
2023/09/13 10:06:14;;;;;;;1999.90;999.90;;;21.40;99.90;;;;;;4998881;28;20431;-68
2023/09/13 10:08:45;;;;;;;1999.90;999.90;;;21.40;99.90;;;;;;4989750;28;20436;-67
2023/09/13 10:11:13;;;;;;;1999.90;999.90;;;21.40;99.90;;;;;;4996601;28;20477;-68
2023/09/13 10:13:40;;;;;;;1999.90;999.90;;;21.40;99.90;;;;;;4997609;28;20953;-68
2023/09/13 10:16:08;;;;;;;1999.90;999.90;;;21.50;99.90;;;;;;4999149;28;21146;-68
2023/09/13 10:18:38;;;;;;;1999.90;999.90;;;21.50;99.90;;;;;;5004428;28;20414;-67
2023/09/13 10:21:08;;;;;;;1999.90;999.90;;;21.40;99.90;;;;;;4999217;28;20472;-65
2023/09/13 10:23:39;;;;;;;1999.90;999.90;;;21.50;99.90;;;;;;5007795;28;20449;-69
2023/09/13 10:26:11;;;;;;;1999.90;999.90;;;21.60;99.90;;;;;;5007991;28;20480;-69
2023/09/13 10:28:44;;;;;;;1999.90;999.90;;;21.70;99.90;;;;;;5007636;28;20418;-68
2023/09/13 10:31:23;;;;;;;1999.90;999.90;;;21.80;99.90;;;;;;5007510;28;20468;-69
2023/09/13 10:33:52;;;;;;;1999.90;999.90;;;22.00;99.90;;;;;;5007069;28;20438;-69
2023/09/13 10:36:31;;;;;;;1999.90;999.90;;;22.20;99.90;;;;;;5007090;28;20421;-67
2023/09/13 10:39:14;;;;;;;1999.90;999.90;;;22.20;99.90;;;;;;5007494;28;20485;-69
2023/09/13 10:41:48;;;;;;;1999.90;999.90;;;22.10;99.90;;;;;;5000743;28;20452;-69
2023/09/13 10:44:14;;;;;;;1999.90;999.90;;;21.90;99.90;;;;;;4998629;28;20474;-69
2023/09/13 10:46:41;;;;;;;1999.90;999.90;;;21.90;99.90;;;;;;5006970;28;20387;-68
2023/09/13 10:49:07;;;;;;;1999.90;999.90;;;22.10;99.90;;;;;;5004595;28;20412;-68
2023/09/13 10:51:35;;;;;;;1999.90;999.90;;;22.20;99.90;;;;;;5003443;28;20387;-69
2023/09/13 10:54:02;;;;;;;1999.90;999.90;;;22.20;99.90;;;;;;5005596;28;20438;-68
2023/09/13 10:56:29;;;;;;;1999.90;999.90;;;22.20;99.90;;;;;;5011686;28;20400;-67
2023/09/13 10:58:58;;;;;;;1999.90;999.90;;;22.10;99.90;;;;;;5011681;28;20492;-69
2023/09/13 11:01:25;;;;;;;1999.90;999.90;;;21.90;99.90;;;;;;5011459;28;20757;-70
2023/09/13 11:03:51;;;;;;;1999.90;999.90;;;21.80;99.90;;;;;;5010808;28;20858;-67
2023/09/13 11:06:18;;;;;;;1999.90;999.90;;;21.80;99.90;;;;;;5011250;28;20393;-67
2023/09/13 11:08:44;;;;;;;1999.90;999.90;;;21.90;99.90;;;;;;5011074;28;20794;-69
2023/09/13 11:11:17;;;;;;;1999.90;999.90;;;22.00;99.90;;;;;;5010891;28;20425;-69
2023/09/13 11:13:45;;;;;;;1999.90;999.90;;;22.20;99.90;;;;;;5010520;28;20414;-67
2023/09/13 11:16:14;;;;;;;1999.90;999.90;;;22.40;99.90;;;;;;5011616;28;20934;-69
2023/09/13 11:18:48;;;;;;;1999.90;999.90;;;22.60;99.90;;;;;;5011190;28;20648;-69
2023/09/13 11:21:28;;;;;;;1999.90;999.90;;;22.60;99.90;;;;;;5010956;28;20443;-69
2023/09/13 11:23:55;;;;;;;1999.90;999.90;;;22.60;99.90;;;;;;5010772;28;20437;-69
2023/09/13 11:26:41;;;;;;;1999.90;999.90;;;22.50;99.90;;;;;;5010719;28;20774;-68
2023/09/13 11:29:23;;;;;;;1999.90;999.90;;;22.60;99.90;;;;;;5010979;28;20945;-67
2023/09/13 11:32:18;;;;;;;1999.90;999.90;;;22.80;99.90;;;;;;5011464;28;20415;-69
2023/09/13 11:34:45;;;;;;;1999.90;999.90;;;22.90;99.90;;;;;;5009245;28;20439;-68
2023/09/13 11:37:12;;;;;;;1999.90;999.90;;;22.80;99.90;;;;;;5010459;28;20398;-69
2023/09/13 11:39:38;;;;;;;1999.90;999.90;;;22.80;99.90;;;;;;5011405;28;20412;-68
2023/09/13 11:42:13;;;;;;;1999.90;999.90;;;22.70;99.90;;;;;;5010454;28;20446;-69
2023/09/13 11:44:39;;;;;;;1999.90;999.90;;;22.70;99.90;;;;;;5010032;28;20401;-68
2023/09/13 11:47:11;;;;;;;1999.90;999.90;;;22.60;99.90;;;;;;5010289;28;20412;-67
2023/09/13 11:49:40;;;;;;;1999.90;999.90;;;22.50;99.90;;;;;;5011065;28;21057;-66
2023/09/13 11:52:06;;;;;;;1999.90;999.90;;;22.50;99.90;;;;;;5010998;28;20803;-68
2023/09/13 11:54:31;;;;;;;1999.90;999.90;;;21.90;99.90;;;;;;5009720;28;20443;-66
2023/09/13 11:57:02;;;;;;;1999.90;999.90;;;20.60;99.90;;;;;;5010400;28;20193;-66
2023/09/13 11:59:31;;;;;;;1999.90;999.90;;;19.70;99.90;;;;;;5009762;28;20177;-67